createdAt,value
2019-01-28T00:01:27.716Z,82.10
2019-01-28T00:03:58.138Z,82.25
2019-01-28T00:06:28.668Z,81.83
2019-01-28T00:08:59.098Z,81.66
2019-01-28T00:11:29.726Z,81.78
2019-01-28T00:14:00.226Z,81.99
2019-01-28T00:16:30.769Z,81.83
2019-01-28T00:19:01.436Z,80.94
2019-01-28T00:21:32.161Z,81.55
2019-01-28T00:24:02.890Z,81.62
2019-01-28T00:26:33.503Z,81.78
2019-01-28T00:29:05.714Z,81.74
2019-01-28T00:31:36.424Z,81.33
2019-01-28T00:34:06.946Z,81.37
2019-01-28T00:36:37.490Z,81.97
2019-01-28T00:39:08.607Z,81.52
2019-01-28T00:41:39.241Z,81.42
2019-01-28T00:44:09.829Z,81.47
2019-01-28T00:46:40.135Z,81.47
2019-01-28T00:49:13.651Z,81.75
2019-01-28T00:51:44.226Z,81.83
2019-01-28T00:54:14.853Z,81.47
2019-01-28T00:56:46.313Z,81.52
2019-01-28T00:59:16.932Z,81.57
2019-01-28T01:01:47.486Z,81.34
2019-01-28T01:04:18.199Z,81.50
2019-01-28T01:06:48.767Z,81.76
2019-01-28T01:09:19.396Z,81.58
2019-01-28T01:11:50.023Z,81.78
2019-01-28T01:14:20.676Z,81.47
2019-01-28T01:16:51.281Z,82.35
2019-01-28T01:19:21.911Z,82.63
2019-01-28T01:21:52.540Z,82.73
2019-01-28T01:24:23.148Z,81.39
2019-01-28T01:26:53.808Z,82.37
2019-01-28T01:29:27.193Z,81.88
2019-01-28T01:31:57.856Z,82.25
2019-01-28T01:34:28.560Z,83.14
2019-01-28T01:36:59.110Z,83.59
2019-01-28T01:39:29.732Z,84.93
2019-01-28T01:42:00.234Z,84.87
2019-01-28T01:44:30.883Z,85.19
2019-01-28T01:47:01.152Z,84.47
2019-01-28T01:49:31.818Z,84.63
2019-01-28T01:52:02.513Z,84.96
2019-01-28T01:54:33.131Z,85.11
2019-01-28T01:57:03.723Z,85.00
2019-01-28T01:59:34.096Z,85.51
2019-01-28T02:02:04.776Z,85.24
2019-01-28T02:04:35.319Z,84.62
2019-01-28T02:07:05.838Z,85.09
2019-01-28T02:09:36.466Z,85.33
2019-01-28T02:12:07.055Z,85.61
2019-01-28T02:14:37.774Z,84.94
2019-01-28T02:17:12.693Z,86.23
2019-01-28T02:19:43.402Z,85.51
2019-01-28T02:22:13.695Z,86.31
2019-01-28T02:24:44.356Z,85.23
2019-01-28T02:27:16.637Z,85.85
2019-01-28T02:29:47.464Z,85.42
2019-01-28T02:32:17.989Z,86.20
2019-01-28T02:34:48.553Z,85.59
2019-01-28T02:37:19.162Z,85.93
2019-01-28T02:39:49.438Z,86.00
2019-01-28T02:42:20.025Z,85.20
2019-01-28T02:44:50.665Z,85.37
2019-01-28T02:47:21.276Z,85.56
2019-01-28T02:49:51.805Z,85.34
2019-01-28T02:52:22.441Z,85.99
2019-01-28T02:54:53.119Z,85.56
2019-01-28T02:57:23.712Z,85.98
2019-01-28T02:59:54.430Z,86.10
2019-01-28T03:02:25.002Z,86.21
2019-01-28T03:04:55.596Z,85.80
2019-01-28T03:07:25.940Z,86.46
2019-01-28T03:09:56.679Z,86.51
2019-01-28T03:12:27.416Z,86.42
2019-01-28T03:14:58.139Z,86.34
2019-01-28T03:17:29.221Z,86.65
2019-01-28T03:20:00.019Z,86.06
2019-01-28T03:22:30.516Z,86.15
2019-01-28T03:25:01.070Z,85.73
2019-01-28T03:27:31.677Z,86.18
2019-01-28T03:30:02.211Z,86.67
2019-01-28T03:32:32.466Z,86.56
2019-01-28T03:35:03.064Z,85.33
2019-01-28T03:37:33.702Z,85.70
2019-01-28T03:40:10.085Z,85.73
2019-01-28T03:42:40.696Z,86.08
2019-01-28T03:45:14.231Z,85.70
2019-01-28T03:47:44.821Z,86.32
2019-01-28T03:50:19.580Z,86.28
2019-01-28T03:52:50.279Z,86.24
2019-01-28T03:55:20.596Z,86.47
2019-01-28T03:57:51.165Z,86.70
2019-01-28T04:00:24.045Z,86.65
2019-01-28T04:02:54.305Z,86.75
2019-01-28T04:05:24.536Z,86.87
2019-01-28T04:07:55.122Z,86.76
2019-01-28T04:10:25.755Z,85.76
2019-01-28T04:12:56.381Z,85.60
2019-01-28T04:15:27.098Z,85.79
2019-01-28T04:17:57.643Z,86.11
2019-01-28T04:20:28.205Z,86.03
2019-01-28T04:22:58.804Z,86.30
2019-01-28T04:25:29.338Z,85.57
2019-01-28T04:27:59.967Z,85.67
2019-01-28T04:30:30.237Z,85.67
2019-01-28T04:33:00.999Z,85.83
2019-01-28T04:35:31.556Z,85.85
2019-01-28T04:38:02.086Z,87.06
2019-01-28T04:40:32.440Z,85.57
2019-01-28T04:43:02.925Z,86.30
2019-01-28T04:45:33.556Z,86.13
2019-01-28T04:48:04.200Z,86.36
2019-01-28T04:50:34.492Z,86.01
2019-01-28T04:53:04.769Z,85.40
2019-01-28T04:55:35.070Z,85.40
2019-01-28T04:58:05.618Z,85.41
2019-01-28T05:00:36.221Z,85.54
2019-01-28T05:03:06.852Z,86.68
2019-01-28T05:05:37.500Z,86.09
2019-01-28T05:08:08.124Z,85.73
2019-01-28T05:10:38.752Z,85.75
2019-01-28T05:13:09.424Z,85.82
2019-01-28T05:15:40.022Z,86.54
2019-01-28T05:18:10.633Z,86.02
2019-01-28T05:20:40.847Z,86.58
2019-01-28T05:23:11.406Z,87.36
2019-01-28T05:25:41.923Z,86.76
2019-01-28T05:28:12.191Z,86.28
2019-01-28T05:30:42.411Z,85.79
2019-01-28T05:33:13.009Z,86.76
2019-01-28T05:35:43.357Z,86.38
2019-01-28T05:38:13.843Z,86.56
2019-01-28T05:40:44.482Z,86.36
2019-01-28T05:43:15.051Z,86.77
2019-01-28T05:45:45.767Z,86.26
2019-01-28T05:48:16.420Z,86.48
2019-01-28T05:50:46.726Z,86.47
2019-01-28T05:53:16.981Z,86.47
2019-01-28T05:55:47.592Z,86.23
2019-01-28T05:58:18.182Z,86.62
2019-01-28T06:00:48.751Z,86.48
2019-01-28T06:03:19.371Z,86.38
2019-01-28T06:05:50.114Z,86.50
2019-01-28T06:08:20.641Z,86.71
2019-01-28T06:10:51.276Z,86.45
2019-01-28T06:13:21.791Z,86.84
2019-01-28T06:15:52.438Z,86.95
2019-01-28T06:18:23.058Z,86.68
2019-01-28T06:20:53.788Z,86.40
2019-01-28T06:23:24.328Z,86.46
2019-01-28T06:25:54.955Z,86.41
2019-01-28T06:28:25.206Z,86.35
2019-01-28T06:30:55.815Z,86.32
2019-01-28T06:33:26.381Z,86.30
2019-01-28T06:35:56.692Z,86.06
2019-01-28T06:38:27.001Z,85.96
2019-01-28T06:40:57.613Z,85.74
2019-01-28T06:43:28.253Z,86.14
2019-01-28T06:45:58.855Z,86.17
2019-01-28T06:48:29.524Z,86.37
2019-01-28T06:51:00.154Z,86.00
2019-01-28T06:53:30.681Z,85.89
2019-01-28T06:56:01.314Z,85.86
2019-01-28T06:58:31.838Z,86.01
2019-01-28T07:01:02.129Z,86.17
2019-01-28T07:03:32.703Z,86.09
2019-01-28T07:06:03.422Z,86.34
2019-01-28T07:08:34.051Z,86.19
2019-01-28T07:11:04.277Z,86.22
2019-01-28T07:13:34.622Z,85.20
2019-01-28T07:16:05.334Z,85.56
2019-01-28T07:18:36.367Z,86.26
2019-01-28T07:21:08.054Z,84.27
2019-01-28T07:23:38.660Z,84.70
2019-01-28T07:26:09.337Z,85.12
2019-01-28T07:28:39.938Z,85.52
2019-01-28T07:31:10.452Z,85.93
2019-01-28T07:33:41.089Z,86.05
2019-01-28T07:36:14.176Z,86.02
2019-01-28T07:38:44.808Z,86.31
2019-01-28T07:41:15.451Z,85.34
2019-01-28T07:43:46.085Z,85.33
2019-01-28T07:46:22.761Z,85.13
2019-01-28T07:48:53.478Z,84.77
2019-01-28T07:51:24.226Z,84.24
2019-01-28T07:53:54.855Z,85.45
2019-01-28T07:56:25.455Z,85.37
2019-01-28T07:58:55.993Z,84.97
2019-01-28T08:01:26.260Z,83.88
2019-01-28T08:03:56.755Z,84.29
2019-01-28T08:06:27.513Z,84.68
2019-01-28T08:08:57.799Z,84.27
2019-01-28T08:11:28.027Z,84.85
2019-01-28T08:13:58.575Z,84.64
2019-01-28T08:16:32.283Z,84.57
2019-01-28T08:19:02.919Z,84.58
2019-01-28T08:21:33.604Z,83.55
2019-01-28T08:24:04.166Z,83.44
2019-01-28T08:26:34.697Z,84.07
2019-01-28T08:29:05.848Z,84.56
2019-01-28T08:31:36.442Z,84.38
2019-01-28T08:34:07.018Z,84.75
2019-01-28T08:36:37.724Z,83.94
2019-01-28T08:39:09.294Z,83.34
2019-01-28T08:41:39.818Z,83.88
2019-01-28T08:44:12.012Z,82.88
2019-01-28T08:46:42.624Z,83.68
2019-01-28T08:49:13.258Z,83.32
2019-01-28T08:51:43.988Z,82.76
2019-01-28T08:54:14.504Z,82.78
2019-01-28T08:56:45.246Z,83.77
2019-01-28T08:59:18.825Z,82.90
2019-01-28T09:01:49.482Z,82.54
2019-01-28T09:04:20.092Z,82.66
2019-01-28T09:06:50.456Z,81.94
2019-01-28T09:09:20.766Z,82.23
2019-01-28T09:11:51.091Z,81.89
2019-01-28T09:14:21.640Z,81.64
2019-01-28T09:16:52.248Z,81.28
2019-01-28T09:19:22.435Z,82.29
2019-01-28T09:21:52.985Z,82.44
2019-01-28T09:24:23.522Z,81.81
2019-01-28T09:26:54.059Z,80.09
2019-01-28T09:29:24.681Z,81.01
2019-01-28T09:31:55.429Z,80.20
2019-01-28T09:34:26.042Z,80.07
2019-01-28T09:36:56.571Z,81.15
2019-01-28T09:39:28.661Z,81.03
2019-01-28T09:41:59.408Z,81.33
2019-01-28T09:44:29.614Z,80.29
2019-01-28T09:47:00.329Z,79.51
2019-01-28T09:49:33.953Z,80.60
2019-01-28T09:52:04.639Z,80.34
2019-01-28T09:54:35.220Z,80.25
2019-01-28T09:57:06.313Z,80.64
2019-01-28T09:59:37.094Z,80.07
2019-01-28T10:02:07.621Z,78.96
2019-01-28T10:04:38.263Z,79.93
2019-01-28T10:07:08.895Z,80.33
2019-01-28T10:09:39.160Z,80.29
2019-01-28T10:12:09.785Z,79.66
2019-01-28T10:14:40.352Z,78.87
2019-01-28T10:17:10.903Z,79.40
2019-01-28T10:19:41.508Z,78.71
2019-01-28T10:22:12.062Z,79.20
2019-01-28T10:24:43.806Z,79.72
2019-01-28T10:27:14.363Z,79.66
2019-01-28T10:29:44.955Z,78.26
2019-01-28T10:32:15.536Z,77.29
2019-01-28T10:34:45.763Z,78.11
2019-01-28T10:37:16.354Z,78.06
2019-01-28T10:39:46.945Z,77.71
2019-01-28T10:42:17.610Z,77.84
2019-01-28T10:44:48.286Z,77.77
2019-01-28T10:47:19.830Z,77.85
2019-01-28T10:49:50.331Z,75.80
2019-01-28T10:52:21.065Z,75.76
2019-01-28T10:54:52.691Z,76.77
2019-01-28T10:57:23.369Z,75.95
2019-01-28T10:59:53.986Z,75.04
2019-01-28T11:02:24.328Z,76.96
2019-01-28T11:04:54.914Z,77.89
2019-01-28T11:07:25.590Z,77.88
2019-01-28T11:09:56.218Z,77.24
2019-01-28T11:12:26.814Z,76.93
2019-01-28T11:14:58.573Z,76.34
2019-01-28T11:17:29.260Z,77.04
2019-01-28T11:19:59.995Z,76.57
2019-01-28T11:22:30.614Z,76.62
2019-01-28T11:25:01.798Z,76.73
2019-01-28T11:27:33.262Z,76.01
2019-01-28T11:30:04.647Z,75.34
2019-01-28T11:32:35.325Z,75.03
2019-01-28T11:35:07.364Z,76.03
2019-01-28T11:37:38.090Z,75.42
2019-01-28T11:40:14.178Z,74.54
2019-01-28T11:42:45.036Z,74.56
2019-01-28T11:45:21.575Z,73.74
2019-01-28T11:47:52.317Z,73.05
2019-01-28T11:50:23.215Z,72.73
2019-01-28T11:52:54.344Z,72.79
2019-01-28T11:55:25.203Z,73.58
2019-01-28T11:57:55.696Z,74.41
2019-01-28T12:00:48.884Z,72.43
2019-01-28T12:03:19.605Z,73.85
2019-01-28T12:05:50.234Z,73.77
2019-01-28T12:08:20.758Z,74.11
2019-01-28T12:10:51.013Z,71.85
2019-01-28T12:13:21.925Z,72.60
2019-01-28T12:15:52.469Z,72.56
2019-01-28T12:18:23.006Z,71.95
2019-01-28T12:20:53.991Z,72.46
2019-01-28T12:23:24.612Z,71.86
2019-01-28T12:25:55.181Z,73.11
2019-01-28T12:28:25.713Z,72.66
2019-01-28T12:30:55.904Z,72.40
2019-01-28T12:33:26.501Z,72.04
2019-01-28T12:35:56.762Z,71.64
2019-01-28T12:38:27.563Z,71.45
2019-01-28T12:40:58.161Z,71.31
2019-01-28T12:43:28.707Z,69.36
2019-01-28T12:45:59.585Z,70.11
2019-01-28T12:48:30.159Z,68.76
2019-01-28T12:51:00.435Z,68.98
2019-01-28T12:53:31.129Z,69.87
2019-01-28T12:56:01.355Z,68.93
2019-01-28T12:58:31.966Z,69.52
2019-01-28T13:01:02.618Z,68.78
2019-01-28T13:03:33.337Z,67.50
2019-01-28T13:06:03.850Z,66.51
2019-01-28T13:08:34.497Z,67.01
2019-01-28T13:11:07.983Z,66.61
2019-01-28T13:13:41.107Z,67.25
2019-01-28T13:16:10.823Z,68.13
2019-01-28T13:18:41.441Z,68.19
2019-01-28T13:21:12.071Z,67.15
2019-01-28T13:23:43.244Z,68.47
2019-01-28T13:26:13.742Z,69.53
2019-01-28T13:28:44.422Z,69.52
2019-01-28T13:31:15.027Z,69.89
2019-01-28T13:33:45.664Z,69.63
2019-01-28T13:36:16.783Z,70.10
2019-01-28T13:38:47.064Z,68.42
2019-01-28T13:41:17.650Z,68.13
2019-01-28T13:43:48.299Z,68.45
2019-01-28T13:46:19.085Z,68.89
2019-01-28T13:48:49.845Z,68.57
2019-01-28T13:51:20.479Z,67.31
2019-01-28T13:53:51.092Z,67.92
2019-01-28T13:56:21.634Z,68.33
2019-01-28T13:59:00.060Z,68.03
2019-01-28T14:01:33.812Z,69.61
2019-01-28T14:04:03.669Z,69.29
2019-01-28T14:06:34.195Z,69.02
2019-01-28T14:09:08.086Z,69.86
2019-01-28T14:11:41.112Z,69.82
2019-01-28T14:14:13.067Z,68.85
2019-01-28T14:16:43.669Z,69.45
2019-01-28T14:19:14.305Z,69.49
2019-01-28T14:21:44.934Z,69.70
2019-01-28T14:24:16.999Z,70.59
2019-01-28T14:26:47.543Z,69.73
2019-01-28T14:29:19.429Z,70.32
2019-01-28T14:31:50.034Z,70.60
2019-01-28T14:34:22.416Z,70.24
2019-01-28T14:36:53.060Z,69.86
2019-01-28T14:39:24.668Z,70.59
2019-01-28T14:41:55.328Z,69.89
2019-01-28T14:44:25.941Z,69.90
2019-01-28T14:46:59.209Z,69.32
2019-01-28T14:49:32.336Z,69.90
2019-01-28T14:52:02.039Z,70.28
2019-01-28T14:54:32.690Z,70.76
2019-01-28T14:57:03.310Z,70.17
2019-01-28T14:59:33.967Z,69.63
2019-01-28T15:02:04.479Z,69.69
2019-01-28T15:04:35.199Z,69.61
2019-01-28T15:07:05.885Z,70.17
2019-01-28T15:09:36.581Z,69.32
2019-01-28T15:12:07.202Z,69.95
2019-01-28T15:14:37.573Z,70.12
2019-01-28T15:17:08.425Z,69.56
2019-01-28T15:19:39.138Z,69.82
2019-01-28T15:22:09.743Z,69.80
2019-01-28T15:24:41.803Z,69.55
2019-01-28T15:27:12.522Z,69.66
2019-01-28T15:29:43.176Z,70.23
2019-01-28T15:32:15.758Z,70.72
2019-01-28T15:34:48.637Z,71.22
2019-01-28T15:37:20.721Z,70.90
2019-01-28T15:39:51.315Z,71.45
2019-01-28T15:42:21.967Z,71.70
2019-01-28T15:45:01.718Z,70.77
2019-01-28T15:47:31.956Z,70.88
2019-01-28T15:50:10.376Z,71.70
2019-01-28T15:52:34.819Z,72.82
2019-01-28T15:55:08.639Z,72.37
2019-01-28T15:57:39.292Z,72.35
2019-01-28T16:00:13.512Z,73.38
2019-01-28T16:02:44.336Z,73.28
2019-01-28T16:05:16.712Z,74.14
2019-01-28T16:07:47.849Z,74.04
2019-01-28T16:10:21.377Z,74.81
2019-01-28T16:12:51.884Z,75.05
2019-01-28T16:15:28.736Z,75.45
2019-01-28T16:17:59.525Z,75.89
2019-01-28T16:20:30.102Z,76.22
2019-01-28T16:23:02.288Z,76.59
2019-01-28T16:25:33.820Z,77.43
2019-01-28T16:28:06.370Z,77.75
2019-01-28T16:30:38.559Z,77.48
2019-01-28T16:33:08.917Z,78.09
2019-01-28T16:35:39.534Z,78.53
2019-01-28T16:38:10.182Z,78.97
2019-01-28T16:40:40.815Z,79.79
2019-01-28T16:43:11.420Z,80.16
2019-01-28T16:45:42.041Z,80.38
2019-01-28T16:48:14.607Z,80.50
2019-01-28T16:50:45.203Z,80.47
2019-01-28T16:53:15.815Z,80.17
2019-01-28T16:55:46.589Z,80.79
2019-01-28T16:58:17.270Z,80.81
2019-01-28T17:00:47.905Z,80.66
2019-01-28T17:03:18.411Z,80.92
2019-01-28T17:05:48.955Z,81.24
2019-01-28T17:08:19.466Z,80.83
2019-01-28T17:10:50.020Z,81.16
2019-01-28T17:13:21.218Z,81.09
2019-01-28T17:15:51.489Z,81.70
2019-01-28T17:18:21.991Z,81.47
2019-01-28T17:20:52.549Z,81.36
2019-01-28T17:23:23.291Z,81.29
2019-01-28T17:25:54.022Z,81.61
2019-01-28T17:28:24.644Z,81.27
2019-01-28T17:30:55.282Z,81.01
2019-01-28T17:33:25.673Z,81.13
2019-01-28T17:35:56.344Z,81.29
2019-01-28T17:38:27.000Z,81.27
2019-01-28T17:40:59.266Z,81.49
2019-01-28T17:43:29.776Z,81.43
2019-01-28T17:46:00.529Z,81.62
2019-01-28T17:48:31.151Z,82.16
2019-01-28T17:51:03.670Z,81.88
2019-01-28T17:53:33.939Z,81.97
2019-01-28T17:56:05.275Z,81.50
2019-01-28T17:58:35.955Z,81.41
2019-01-28T18:01:06.586Z,81.46
2019-01-28T18:03:37.264Z,80.89
2019-01-28T18:06:07.954Z,81.16
2019-01-28T18:08:38.427Z,80.00
2019-01-28T18:11:08.970Z,81.18
2019-01-28T18:13:42.786Z,82.12
2019-01-28T18:16:14.078Z,81.91
2019-01-28T18:18:44.667Z,80.98
2019-01-28T18:21:15.406Z,81.18
2019-01-28T18:23:46.864Z,81.24
2019-01-28T18:26:17.695Z,82.07
2019-01-28T18:28:48.410Z,82.66
2019-01-28T18:31:18.744Z,81.67
2019-01-28T18:33:49.397Z,82.29
2019-01-28T18:36:20.107Z,81.37
2019-01-28T18:38:50.307Z,82.56
2019-01-28T18:41:21.486Z,82.64
2019-01-28T18:43:52.202Z,81.00
2019-01-28T18:46:26.434Z,81.11
2019-01-28T18:48:57.203Z,82.28
2019-01-28T18:51:27.987Z,80.64
2019-01-28T18:53:58.618Z,82.25
2019-01-28T18:56:29.289Z,83.09
2019-01-28T18:59:01.175Z,82.71
2019-01-28T19:01:32.259Z,82.97
2019-01-28T19:04:02.591Z,82.97
2019-01-28T19:06:44.277Z,80.84
2019-01-28T19:09:16.456Z,81.19
2019-01-28T19:11:48.571Z,82.47
2019-01-28T19:14:23.438Z,83.04
2019-01-28T19:16:55.718Z,81.16
2019-01-28T19:19:36.403Z,82.25
2019-01-28T19:22:09.977Z,82.29
2019-01-28T19:24:40.632Z,82.48
2019-01-28T19:27:13.892Z,82.00
2019-01-28T19:29:44.520Z,81.93
2019-01-28T19:32:15.263Z,82.41
2019-01-28T19:34:45.971Z,82.53
2019-01-28T19:37:16.423Z,82.22
2019-01-28T19:39:47.103Z,82.06
2019-01-28T19:42:17.859Z,82.00
2019-01-28T19:44:50.213Z,81.47
2019-01-28T19:47:21.112Z,81.38
2019-01-28T19:49:51.845Z,81.12
2019-01-28T19:52:23.099Z,81.80
2019-01-28T19:54:53.842Z,81.87
2019-01-28T19:57:24.480Z,81.90
2019-01-28T19:59:57.584Z,82.11
2019-01-28T20:02:29.766Z,82.22
2019-01-28T20:05:00.466Z,82.11
2019-01-28T20:07:31.124Z,81.94
2019-01-28T20:10:01.815Z,82.14
2019-01-28T20:12:34.228Z,81.75
2019-01-28T20:15:07.579Z,82.61
2019-01-28T20:17:38.230Z,82.40
2019-01-28T20:20:11.763Z,81.57
2019-01-28T20:22:45.384Z,82.00
2019-01-28T20:25:16.831Z,82.61
2019-01-28T20:27:47.647Z,81.86
2019-01-28T20:30:21.607Z,81.83
2019-01-28T20:32:52.525Z,81.56
2019-01-28T20:35:23.215Z,81.37
2019-01-28T20:37:55.006Z,81.63
2019-01-28T20:40:25.746Z,82.20
2019-01-28T20:42:56.557Z,81.72
2019-01-28T20:45:27.400Z,81.80
2019-01-28T20:47:58.127Z,81.74
2019-01-28T20:50:30.539Z,81.79
2019-01-28T20:53:01.356Z,82.01
2019-01-28T20:55:31.713Z,82.57
2019-01-28T20:58:02.520Z,82.50
2019-01-28T21:00:34.681Z,82.36
2019-01-28T21:03:05.559Z,82.08
2019-01-28T21:05:36.286Z,82.57
2019-01-28T21:08:07.038Z,82.60
2019-01-28T21:10:37.834Z,82.65
2019-01-28T21:13:08.665Z,81.62
2019-01-28T21:15:39.363Z,82.17
2019-01-28T21:18:09.622Z,82.35
2019-01-28T21:20:40.355Z,81.97
2019-01-28T21:23:11.048Z,82.31
2019-01-28T21:25:46.342Z,82.42
2019-01-28T21:28:16.684Z,81.67
2019-01-28T21:30:47.469Z,82.19
2019-01-28T21:33:24.447Z,82.41
2019-01-28T21:36:02.940Z,82.76
2019-01-28T21:38:43.922Z,82.15
2019-01-28T21:41:14.650Z,82.17
2019-01-28T21:43:45.407Z,81.95
2019-01-28T21:46:15.993Z,82.63
2019-01-28T21:48:46.329Z,82.55
2019-01-28T21:51:17.023Z,82.37
2019-01-28T21:53:47.705Z,82.25
2019-01-28T21:56:18.522Z,82.32
2019-01-28T21:58:49.127Z,82.30
2019-01-28T22:01:19.798Z,82.71
2019-01-28T22:03:52.107Z,82.84
2019-01-28T22:06:22.807Z,82.83
2019-01-28T22:08:53.435Z,82.54
2019-01-28T22:11:23.757Z,83.04
2019-01-28T22:13:54.143Z,82.71
2019-01-28T22:16:25.440Z,82.53
2019-01-28T22:18:56.160Z,82.76
2019-01-28T22:21:26.812Z,82.61
2019-01-28T22:23:57.439Z,82.90
2019-01-28T22:26:27.814Z,81.86
2019-01-28T22:28:58.507Z,82.24
2019-01-28T22:31:29.138Z,82.05
2019-01-28T22:33:59.982Z,82.66
2019-01-28T22:36:30.620Z,82.40
2019-01-28T22:39:01.842Z,82.89
2019-01-28T22:41:33.383Z,82.48
2019-01-28T22:44:03.916Z,82.38
2019-01-28T22:46:36.068Z,82.30
2019-01-28T22:49:06.601Z,82.59
2019-01-28T22:51:37.156Z,82.56
2019-01-28T22:54:07.763Z,81.83
2019-01-28T22:56:38.418Z,82.27
2019-01-28T22:59:09.139Z,82.76
2019-01-28T23:01:41.453Z,82.49
2019-01-28T23:04:12.292Z,82.80
2019-01-28T23:06:42.858Z,83.05
2019-01-28T23:09:13.500Z,82.88
2019-01-28T23:11:45.392Z,82.65
2019-01-28T23:14:16.100Z,83.05
2019-01-28T23:16:46.729Z,82.07
2019-01-28T23:19:17.492Z,82.48
2019-01-28T23:21:48.093Z,82.58
2019-01-28T23:24:18.743Z,82.60
2019-01-28T23:26:49.029Z,83.36
2019-01-28T23:29:20.548Z,83.01
2019-01-28T23:31:51.281Z,83.15
2019-01-28T23:34:21.983Z,83.26
2019-01-28T23:36:52.619Z,83.37
2019-01-28T23:39:22.857Z,83.89
2019-01-28T23:41:58.475Z,83.56
2019-01-28T23:44:29.325Z,83.92
2019-01-28T23:47:00.039Z,83.99
2019-01-28T23:49:31.006Z,83.57
2019-01-28T23:52:01.730Z,84.23
2019-01-28T23:54:32.379Z,83.62
2019-01-28T23:57:02.631Z,83.97
2019-01-28T23:59:33.436Z,83.47
